Terminal Aerodrome Forecast
Issued by NWS Charleston, WV

Current Version | Previous Version | Graphics & Text | Print | Product List | Glossary On
Versions: 1 2 3 4 5 6 7 8 9 10 11 12 13 14 15 16 17 18 19 20 21 22 23 24 25 26 27
000
FTUS41 KRLX 161200 AAA
TAFEKN
TAF AMD
KEKN 161236Z 1613/1712 34005KT P6SM BKN028
     FM161400 34007KT P6SM FEW035
     FM162200 09007KT P6SM SKC
     FM170200 13008KT P6SM SKC=

USA.gov is the U.S. government's official web portal to all federal, state and local government web resources and services.